Time;durP1;ratioP1;P1;durP2;ratioP2;P2;SDS_P1;SDS_P2;PMS_P1;PMS_P2;Temp;Humidity;BMP_temperature;BMP_pressure;BME280_temperature;BME280_humidity;BME280_pressure;Samples;Min_cycle;Max_cycle;Signal;HPM_P1;HPM_P2
2022/03/20 00:00:33;;;;;;;2.78;1.52;;;;;;;;;;5064362;28;20050;-79
2022/03/20 00:02:59;;;;;;;2.45;1.80;;;;;;;;;;5098292;28;20038;-79
2022/03/20 00:05:24;;;;;;;1.98;1.70;;;;;;;;;;5081324;28;20114;-79
2022/03/20 00:07:50;;;;;;;2.42;1.70;;;;;;;;;;5081037;28;20020;-78
2022/03/20 00:10:15;;;;;;;1.98;1.70;;;;;;;;;;5097665;28;20488;-81
2022/03/20 00:12:42;;;;;;;3.10;1.65;;;;;;;;;;5116765;28;20035;-79
2022/03/20 00:15:08;;;;;;;4.13;1.90;;;;;;;;;;5099154;28;20092;-79
2022/03/20 00:17:34;;;;;;;1.90;1.67;;;;;;;;;;5097720;28;20043;-79
2022/03/20 00:20:00;;;;;;;3.22;2.00;;;;;;;;;;5116627;28;20390;-79
2022/03/20 00:22:26;;;;;;;4.05;2.03;;;;;;;;;;5098436;28;20027;-80
2022/03/20 00:24:51;;;;;;;1.95;1.70;;;;;;;;;;5098623;28;20020;-80
2022/03/20 00:27:17;;;;;;;4.00;1.80;;;;;;;;;;5097862;28;20023;-79
2022/03/20 00:29:43;;;;;;;3.13;2.20;;;;;;;;;;5097846;28;20084;-80
2022/03/20 00:32:11;;;;;;;2.75;1.98;;;;;;;;;;5080849;28;20033;-79
2022/03/20 00:34:37;;;;;;;3.22;1.80;;;;;;;;;;5097840;28;20111;-79
2022/03/20 00:37:03;;;;;;;2.92;2.00;;;;;;;;;;5098271;28;20042;-79
2022/03/20 00:39:28;;;;;;;9.38;2.00;;;;;;;;;;5115512;28;20020;-80
2022/03/20 00:41:54;;;;;;;2.22;1.98;;;;;;;;;;5080772;28;20498;-79
2022/03/20 00:44:19;;;;;;;2.90;2.00;;;;;;;;;;5115328;28;20035;-81
2022/03/20 00:46:45;;;;;;;4.10;2.40;;;;;;;;;;5080388;28;20462;-79
2022/03/20 00:49:10;;;;;;;2.88;2.00;;;;;;;;;;5097059;28;20050;-80
2022/03/20 00:51:36;;;;;;;4.93;2.20;;;;;;;;;;5115987;28;20103;-81
2022/03/20 00:54:01;;;;;;;3.47;2.20;;;;;;;;;;5097714;28;20055;-80
2022/03/20 00:56:27;;;;;;;2.45;2.15;;;;;;;;;;5097528;28;20084;-80
2022/03/20 00:58:52;;;;;;;4.47;2.20;;;;;;;;;;5081741;28;20461;-79
2022/03/20 01:01:18;;;;;;;2.78;2.03;;;;;;;;;;5098018;28;20027;-79
2022/03/20 01:03:44;;;;;;;2.65;2.20;;;;;;;;;;5097399;28;20043;-79
2022/03/20 01:06:10;;;;;;;4.15;2.22;;;;;;;;;;5115977;28;20027;-80
2022/03/20 01:08:37;;;;;;;3.85;2.30;;;;;;;;;;5116170;28;20470;-80
2022/03/20 01:11:04;;;;;;;3.65;2.40;;;;;;;;;;5097924;28;20065;-80
2022/03/20 01:13:29;;;;;;;4.72;2.50;;;;;;;;;;5064758;28;20030;-80
2022/03/20 01:15:56;;;;;;;5.15;1.90;;;;;;;;;;5115646;28;20028;-80
2022/03/20 01:18:21;;;;;;;2.42;1.90;;;;;;;;;;5115453;28;20088;-80
2022/03/20 01:20:47;;;;;;;3.33;2.08;;;;;;;;;;5097283;28;20028;-80
2022/03/20 01:23:12;;;;;;;3.28;2.17;;;;;;;;;;5096636;28;20020;-80
2022/03/20 01:25:39;;;;;;;2.72;2.15;;;;;;;;;;5114569;28;20367;-79
2022/03/20 01:28:04;;;;;;;3.92;2.05;;;;;;;;;;5115247;28;20020;-80
2022/03/20 01:30:29;;;;;;;4.03;2.50;;;;;;;;;;5079514;28;20054;-79
2022/03/20 01:32:55;;;;;;;3.20;2.05;;;;;;;;;;5096462;28;20032;-79
2022/03/20 01:35:20;;;;;;;3.85;2.35;;;;;;;;;;5079116;28;20035;-81
2022/03/20 01:37:45;;;;;;;2.38;2.15;;;;;;;;;;5096031;28;20028;-80
2022/03/20 01:40:11;;;;;;;3.40;2.70;;;;;;;;;;5095913;28;20394;-82
2022/03/20 01:42:38;;;;;;;5.78;2.33;;;;;;;;;;5114592;28;20030;-79
2022/03/20 01:45:17;;;;;;;3.15;2.10;;;;;;;;;;5114735;28;20470;-79
2022/03/20 01:47:43;;;;;;;2.47;1.85;;;;;;;;;;5096649;28;20035;-80
2022/03/20 01:50:08;;;;;;;3.78;2.25;;;;;;;;;;5096826;28;20073;-80
2022/03/20 01:52:34;;;;;;;3.60;2.38;;;;;;;;;;5078910;28;20052;-80
2022/03/20 01:55:01;;;;;;;3.90;2.13;;;;;;;;;;5114636;28;20498;-80
2022/03/20 01:57:27;;;;;;;3.20;2.17;;;;;;;;;;5079181;28;20024;-80
2022/03/20 01:59:52;;;;;;;4.88;2.40;;;;;;;;;;5078770;28;20371;-80
2022/03/20 02:02:19;;;;;;;2.60;1.98;;;;;;;;;;5096049;28;20028;-80
2022/03/20 02:04:44;;;;;;;3.10;2.00;;;;;;;;;;5078892;28;20027;-79
2022/03/20 02:07:10;;;;;;;2.55;1.90;;;;;;;;;;5114537;28;20038;-79
2022/03/20 02:09:37;;;;;;;3.10;2.13;;;;;;;;;;5096301;28;20031;-79
2022/03/20 02:12:03;;;;;;;2.25;1.88;;;;;;;;;;5080273;28;20023;-80
2022/03/20 02:14:28;;;;;;;2.33;1.88;;;;;;;;;;5097355;28;20023;-79
2022/03/20 02:16:55;;;;;;;2.35;2.05;;;;;;;;;;5096667;28;20470;-79
2022/03/20 02:19:21;;;;;;;4.40;2.00;;;;;;;;;;5096561;28;20024;-79
2022/03/20 02:21:48;;;;;;;3.40;1.90;;;;;;;;;;5114498;28;20107;-79
2022/03/20 02:24:32;;;;;;;2.92;1.80;;;;;;;;;;5096327;28;20437;-80
2022/03/20 02:27:12;;;;;;;4.07;1.90;;;;;;;;;;5113896;28;20382;-80
2022/03/20 02:29:41;;;;;;;3.58;2.20;;;;;;;;;;5114048;28;20382;-80
2022/03/20 02:32:08;;;;;;;3.28;2.00;;;;;;;;;;5113697;28;20027;-80
2022/03/20 02:34:34;;;;;;;4.60;2.40;;;;;;;;;;5095862;28;20371;-81
2022/03/20 02:37:03;;;;;;;3.33;2.00;;;;;;;;;;5078439;28;20054;-79
2022/03/20 02:39:29;;;;;;;2.20;1.85;;;;;;;;;;5078856;28;20495;-81
2022/03/20 02:41:56;;;;;;;2.70;1.85;;;;;;;;;;5078331;28;20054;-80
2022/03/20 02:45:03;;;;;;;2.38;1.95;;;;;;;;;;5078323;28;20031;-79
2022/03/20 02:47:30;;;;;;;3.13;2.17;;;;;;;;;;5095935;28;20103;-80
2022/03/20 02:49:57;;;;;;;3.25;2.20;;;;;;;;;;5095427;28;20019;-80
2022/03/20 02:52:26;;;;;;;4.00;2.17;;;;;;;;;;5113631;28;20020;-79
2022/03/20 02:54:52;;;;;;;3.47;2.22;;;;;;;;;;5095735;28;20035;-80
2022/03/20 02:57:18;;;;;;;3.60;1.90;;;;;;;;;;5078465;28;20023;-80
2022/03/20 02:59:44;;;;;;;3.30;2.30;;;;;;;;;;5113746;28;20019;-80
2022/03/20 03:02:10;;;;;;;3.13;2.08;;;;;;;;;;5113391;28;20027;-80
2022/03/20 03:04:37;;;;;;;2.85;2.25;;;;;;;;;;5113650;28;20028;-79
2022/03/20 03:07:03;;;;;;;3.90;2.20;;;;;;;;;;5113777;28;20030;-79
2022/03/20 03:12:13;;;;;;;3.97;2.40;;;;;;;;;;5115508;28;20122;-79
2022/03/20 03:17:27;;;;;;;3.03;2.38;;;;;;;;;;5117743;28;20115;-81
2022/03/20 03:19:54;;;;;;;3.08;2.50;;;;;;;;;;5120449;28;20036;-80
2022/03/20 03:22:20;;;;;;;3.80;2.53;;;;;;;;;;5099331;28;20028;-79
2022/03/20 03:24:46;;;;;;;4.75;2.40;;;;;;;;;;5081581;28;20053;-79
2022/03/20 03:27:11;;;;;;;2.55;2.33;;;;;;;;;;5117221;28;20077;-80
2022/03/20 03:29:36;;;;;;;5.10;2.50;;;;;;;;;;5117132;28;20020;-80
2022/03/20 03:32:02;;;;;;;3.90;2.70;;;;;;;;;;5098705;28;20398;-80
2022/03/20 03:37:12;;;;;;;6.03;3.20;;;;;;;;;;5117090;28;20488;-81
2022/03/20 03:39:37;;;;;;;3.60;2.88;;;;;;;;;;5098514;28;20115;-80
2022/03/20 03:42:03;;;;;;;4.93;2.65;;;;;;;;;;5116836;28;20367;-80
2022/03/20 03:44:28;;;;;;;4.50;2.88;;;;;;;;;;5098445;28;20119;-80
2022/03/20 03:46:57;;;;;;;4.60;3.10;;;;;;;;;;5099256;28;20042;-80
2022/03/20 03:49:23;;;;;;;4.18;2.60;;;;;;;;;;5081681;28;20047;-79
2022/03/20 03:51:48;;;;;;;6.40;3.00;;;;;;;;;;5098552;28;20058;-79
2022/03/20 03:54:13;;;;;;;3.20;2.85;;;;;;;;;;5098950;28;20063;-79
2022/03/20 03:56:40;;;;;;;4.45;2.60;;;;;;;;;;5098157;28;20055;-79
2022/03/20 03:59:05;;;;;;;4.22;2.92;;;;;;;;;;5117401;28;20089;-79
2022/03/20 04:01:31;;;;;;;3.88;2.67;;;;;;;;;;5081191;28;20027;-79
2022/03/20 04:03:56;;;;;;;3.65;2.80;;;;;;;;;;5081576;28;20139;-79
2022/03/20 04:06:21;;;;;;;3.20;2.50;;;;;;;;;;5098094;28;20035;-79
2022/03/20 04:08:47;;;;;;;3.72;2.83;;;;;;;;;;5116075;28;20382;-79
2022/03/20 04:11:13;;;;;;;4.80;3.17;;;;;;;;;;5116346;28;20033;-79
2022/03/20 04:13:38;;;;;;;4.32;2.90;;;;;;;;;;5116112;28;20051;-80
2022/03/20 04:16:05;;;;;;;4.93;3.10;;;;;;;;;;5098091;28;20032;-79
2022/03/20 04:18:31;;;;;;;5.10;3.17;;;;;;;;;;5098272;28;20051;-79
2022/03/20 04:20:56;;;;;;;5.15;2.85;;;;;;;;;;5098349;28;20070;-80
2022/03/20 04:26:05;;;;;;;4.22;2.92;;;;;;;;;;5116280;28;20505;-80
2022/03/20 04:28:31;;;;;;;4.13;2.97;;;;;;;;;;5097482;28;20063;-80
2022/03/20 04:30:56;;;;;;;3.90;3.03;;;;;;;;;;5115840;28;20031;-80
2022/03/20 04:33:22;;;;;;;7.43;4.00;;;;;;;;;;5116024;28;20415;-80
2022/03/20 04:35:48;;;;;;;4.53;3.05;;;;;;;;;;5097517;28;20042;-80
2022/03/20 04:38:13;;;;;;;5.80;3.20;;;;;;;;;;5080665;28;20122;-80
2022/03/20 04:40:39;;;;;;;5.55;4.00;;;;;;;;;;5096997;28;20027;-80
2022/03/20 04:43:04;;;;;;;5.10;3.40;;;;;;;;;;5080416;28;20386;-80
2022/03/20 04:45:29;;;;;;;7.85;3.97;;;;;;;;;;5115926;28;20101;-80
2022/03/20 04:58:50;;;;;;;6.90;3.95;;;;;;;;;;5100059;28;20111;-79
2022/03/20 05:01:16;;;;;;;5.78;3.90;;;;;;;;;;5115232;28;20043;-79
2022/03/20 05:03:41;;;;;;;4.22;3.38;;;;;;;;;;5096929;28;20047;-79
2022/03/20 05:06:07;;;;;;;7.32;4.18;;;;;;;;;;5115804;28;20023;-80
2022/03/20 05:08:35;;;;;;;5.03;3.80;;;;;;;;;;5115667;28;20031;-79
2022/03/20 05:13:45;;;;;;;6.35;4.15;;;;;;;;;;5099664;28;20578;-80
2022/03/20 05:16:10;;;;;;;5.47;3.88;;;;;;;;;;5097861;28;20138;-79
2022/03/20 05:18:35;;;;;;;5.57;4.00;;;;;;;;;;5114974;28;20032;-79
2022/03/20 05:21:01;;;;;;;5.03;4.13;;;;;;;;;;5115044;28;20382;-80
2022/03/20 05:23:27;;;;;;;6.32;4.55;;;;;;;;;;5080111;28;20114;-80
2022/03/20 05:25:52;;;;;;;8.07;4.00;;;;;;;;;;5096599;28;20044;-80
2022/03/20 05:28:18;;;;;;;5.18;3.97;;;;;;;;;;5097237;28;20096;-80
2022/03/20 05:30:44;;;;;;;5.50;4.00;;;;;;;;;;5096075;28;20031;-80
2022/03/20 05:33:14;;;;;;;5.93;4.07;;;;;;;;;;5078875;28;20111;-80
2022/03/20 05:35:40;;;;;;;7.53;3.83;;;;;;;;;;5062680;28;20366;-81
2022/03/20 05:38:08;;;;;;;8.25;4.13;;;;;;;;;;5078487;28;20123;-80
2022/03/20 05:40:33;;;;;;;5.53;3.92;;;;;;;;;;5095735;28;20019;-80
2022/03/20 05:42:59;;;;;;;7.68;4.25;;;;;;;;;;5095273;28;20379;-80
2022/03/20 05:45:24;;;;;;;5.25;4.20;;;;;;;;;;5113867;28;20030;-80
2022/03/20 05:47:49;;;;;;;5.85;4.15;;;;;;;;;;5095724;28;20123;-80
2022/03/20 05:50:15;;;;;;;9.45;4.57;;;;;;;;;;5095688;28;20032;-80
2022/03/20 05:52:41;;;;;;;7.18;4.10;;;;;;;;;;5078309;28;20164;-80
2022/03/20 05:55:07;;;;;;;7.32;4.53;;;;;;;;;;5079709;28;20027;-79
2022/03/20 06:00:22;;;;;;;7.85;4.28;;;;;;;;;;5098854;28;20585;-79
2022/03/20 06:02:47;;;;;;;6.88;4.50;;;;;;;;;;5097680;28;20118;-80
2022/03/20 06:05:13;;;;;;;6.60;4.55;;;;;;;;;;5081159;28;20110;-79
2022/03/20 06:07:52;;;;;;;7.00;4.55;;;;;;;;;;5116669;28;20034;-79
2022/03/20 06:10:18;;;;;;;6.38;4.22;;;;;;;;;;5107977;28;20089;-80
2022/03/20 06:12:44;;;;;;;5.15;3.60;;;;;;;;;;5117675;28;20039;-79
2022/03/20 06:15:10;;;;;;;5.90;4.25;;;;;;;;;;5117134;28;20031;-80
2022/03/20 06:17:37;;;;;;;6.32;4.57;;;;;;;;;;5081024;28;20031;-80
2022/03/20 06:20:05;;;;;;;6.72;4.32;;;;;;;;;;5097617;28;20030;-80
2022/03/20 06:22:30;;;;;;;6.25;4.03;;;;;;;;;;5107512;28;20024;-79
2022/03/20 06:24:56;;;;;;;6.03;4.60;;;;;;;;;;5118830;28;20480;-80
2022/03/20 06:27:21;;;;;;;6.70;4.45;;;;;;;;;;5096982;28;20034;-79
2022/03/20 06:29:46;;;;;;;8.60;4.57;;;;;;;;;;5096755;28;20039;-80
2022/03/20 06:32:12;;;;;;;7.15;4.88;;;;;;;;;;5096422;28;20034;-80
2022/03/20 06:34:37;;;;;;;7.20;4.80;;;;;;;;;;5114161;28;20062;-80
2022/03/20 06:37:03;;;;;;;8.13;5.20;;;;;;;;;;5098447;28;20465;-82
2022/03/20 06:39:28;;;;;;;8.88;5.05;;;;;;;;;;5097148;28;20038;-80
2022/03/20 06:41:57;;;;;;;7.20;4.70;;;;;;;;;;5096679;28;20089;-80
2022/03/20 06:44:24;;;;;;;7.20;5.32;;;;;;;;;;5062324;28;20059;-81
2022/03/20 06:46:50;;;;;;;7.10;4.72;;;;;;;;;;5082096;28;20035;-81
2022/03/20 06:49:21;;;;;;;6.40;5.13;;;;;;;;;;5086473;28;20184;-81
2022/03/20 06:51:47;;;;;;;9.00;4.95;;;;;;;;;;5101587;28;20028;-80
2022/03/20 06:54:13;;;;;;;6.70;5.13;;;;;;;;;;5095595;28;20063;-81
2022/03/20 06:56:39;;;;;;;8.90;5.28;;;;;;;;;;5080245;28;20127;-81
2022/03/20 06:59:05;;;;;;;8.40;5.78;;;;;;;;;;5097318;28;20371;-81
2022/03/20 07:01:31;;;;;;;7.38;5.30;;;;;;;;;;5099562;28;20047;-81
2022/03/20 07:03:57;;;;;;;8.57;5.72;;;;;;;;;;5064515;28;20032;-81
2022/03/20 07:06:27;;;;;;;9.48;5.93;;;;;;;;;;5097363;28;20028;-81
2022/03/20 07:08:58;;;;;;;7.55;5.50;;;;;;;;;;5064973;28;20054;-80
2022/03/20 07:11:25;;;;;;;12.63;6.07;;;;;;;;;;5064298;28;20069;-80
2022/03/20 07:13:53;;;;;;;9.93;5.55;;;;;;;;;;5098455;28;20027;-81
2022/03/20 07:16:19;;;;;;;8.93;5.93;;;;;;;;;;5100571;28;20052;-80
2022/03/20 07:18:45;;;;;;;9.98;6.22;;;;;;;;;;5099412;28;20036;-80
2022/03/20 07:21:15;;;;;;;10.45;5.70;;;;;;;;;;5100950;28;20032;-82
2022/03/20 07:23:41;;;;;;;8.98;5.93;;;;;;;;;;5099365;28;20028;-80
2022/03/20 07:31:34;;;;;;;11.63;6.15;;;;;;;;;;5099522;28;20047;-82
2022/03/20 07:34:00;;;;;;;11.05;6.10;;;;;;;;;;5098199;28;20447;-82
2022/03/20 07:36:26;;;;;;;9.35;6.18;;;;;;;;;;5080238;28;20442;-80
2022/03/20 07:38:52;;;;;;;9.73;6.30;;;;;;;;;;5096906;28;20208;-80
2022/03/20 07:41:18;;;;;;;8.50;6.03;;;;;;;;;;5080337;28;20060;-80
2022/03/20 07:43:43;;;;;;;9.25;6.22;;;;;;;;;;5079426;28;20024;-80
2022/03/20 07:46:08;;;;;;;12.15;6.78;;;;;;;;;;5080366;28;20058;-81
2022/03/20 07:48:35;;;;;;;9.65;6.65;;;;;;;;;;5095710;28;20479;-80
2022/03/20 07:51:00;;;;;;;8.07;6.32;;;;;;;;;;5078900;28;20034;-81
2022/03/20 07:53:26;;;;;;;9.63;6.85;;;;;;;;;;5079853;28;20503;-80
2022/03/20 07:55:52;;;;;;;9.45;6.47;;;;;;;;;;5097880;28;20024;-80
2022/03/20 07:58:19;;;;;;;7.88;6.03;;;;;;;;;;5098042;28;20092;-80
2022/03/20 08:00:44;;;;;;;8.43;6.20;;;;;;;;;;5098066;28;20020;-80
2022/03/20 08:03:10;;;;;;;10.23;6.63;;;;;;;;;;5096410;28;20375;-80
2022/03/20 08:05:35;;;;;;;9.82;6.05;;;;;;;;;;5066532;28;20111;-80
2022/03/20 08:08:02;;;;;;;9.43;6.55;;;;;;;;;;5100617;28;20560;-80
2022/03/20 08:10:28;;;;;;;7.55;5.90;;;;;;;;;;5103330;28;20044;-80
2022/03/20 08:12:53;;;;;;;10.05;6.43;;;;;;;;;;5099750;28;20048;-80
2022/03/20 08:15:19;;;;;;;8.80;6.18;;;;;;;;;;5097924;28;20474;-81
2022/03/20 08:17:46;;;;;;;7.68;5.95;;;;;;;;;;5080318;28;20051;-81
2022/03/20 08:20:12;;;;;;;9.40;6.18;;;;;;;;;;5078742;28;20040;-81
2022/03/20 08:22:38;;;;;;;9.80;6.38;;;;;;;;;;5079201;28;20073;-81
2022/03/20 08:25:04;;;;;;;9.52;6.53;;;;;;;;;;5099416;28;20554;-81
2022/03/20 08:27:30;;;;;;;10.35;6.57;;;;;;;;;;5085896;28;20036;-82
2022/03/20 08:29:58;;;;;;;8.93;6.40;;;;;;;;;;5103166;28;20394;-84
2022/03/20 08:32:25;;;;;;;11.23;7.03;;;;;;;;;;5100774;28;20062;-82
2022/03/20 08:34:52;;;;;;;14.60;6.78;;;;;;;;;;5101067;28;20024;-83
2022/03/20 08:37:17;;;;;;;13.27;6.50;;;;;;;;;;5082187;28;20028;-84
2022/03/20 08:39:43;;;;;;;13.73;6.63;;;;;;;;;;5099683;28;20024;-83
2022/03/20 08:42:08;;;;;;;21.50;7.90;;;;;;;;;;5099992;28;20032;-84
2022/03/20 08:44:34;;;;;;;14.63;8.35;;;;;;;;;;5101964;28;20031;-84
2022/03/20 08:47:00;;;;;;;12.75;7.43;;;;;;;;;;5105683;28;20057;-84
2022/03/20 08:49:26;;;;;;;10.20;7.10;;;;;;;;;;5105695;28;20028;-83
2022/03/20 08:51:51;;;;;;;10.02;6.88;;;;;;;;;;5084017;28;20092;-85
2022/03/20 08:54:16;;;;;;;12.02;7.38;;;;;;;;;;5083024;28;20051;-84
2022/03/20 08:56:42;;;;;;;13.02;6.55;;;;;;;;;;5097825;28;20028;-84
2022/03/20 08:59:07;;;;;;;13.52;7.43;;;;;;;;;;5098831;28;20032;-82
2022/03/20 09:01:36;;;;;;;14.02;7.82;;;;;;;;;;5097752;28;20028;-82
2022/03/20 09:04:01;;;;;;;10.68;6.72;;;;;;;;;;5094867;28;20488;-83
2022/03/20 09:06:28;;;;;;;11.30;7.43;;;;;;;;;;5079202;28;20032;-83
2022/03/20 09:08:53;;;;;;;11.85;7.32;;;;;;;;;;5095900;28;20062;-84
2022/03/20 09:11:20;;;;;;;13.43;7.53;;;;;;;;;;5096348;28;20024;-82
2022/03/20 09:13:45;;;;;;;10.48;7.28;;;;;;;;;;5078717;28;20054;-83
2022/03/20 09:19:07;;;;;;;10.70;6.50;;;;;;;;;;5095096;28;20039;-83
2022/03/20 09:21:37;;;;;;;8.95;5.95;;;;;;;;;;5095483;28;20027;-85
2022/03/20 09:24:04;;;;;;;11.80;7.18;;;;;;;;;;5095007;28;20020;-83
2022/03/20 09:26:30;;;;;;;11.15;6.78;;;;;;;;;;5060385;28;20023;-82
2022/03/20 09:28:56;;;;;;;10.20;6.45;;;;;;;;;;5094097;28;20547;-82
2022/03/20 09:31:22;;;;;;;9.93;6.70;;;;;;;;;;5077331;28;20027;-82
2022/03/20 09:33:48;;;;;;;12.02;7.07;;;;;;;;;;5093370;28;20032;-82
2022/03/20 09:36:14;;;;;;;11.45;7.10;;;;;;;;;;5093568;28;20149;-82
2022/03/20 09:38:39;;;;;;;13.48;7.40;;;;;;;;;;5095093;28;20123;-81
2022/03/20 09:41:07;;;;;;;11.50;7.53;;;;;;;;;;5076927;28;20047;-81
2022/03/20 09:43:33;;;;;;;12.95;7.50;;;;;;;;;;5094514;28;20415;-82
2022/03/20 09:45:59;;;;;;;11.07;7.50;;;;;;;;;;5097220;28;20032;-83
2022/03/20 09:48:27;;;;;;;11.82;7.35;;;;;;;;;;5077235;28;20466;-83
2022/03/20 09:50:52;;;;;;;13.27;6.82;;;;;;;;;;5094604;28;20020;-82
2022/03/20 09:53:18;;;;;;;10.90;6.88;;;;;;;;;;5106346;28;20052;-82
2022/03/20 09:55:43;;;;;;;9.63;6.65;;;;;;;;;;5117259;28;20028;-82
2022/03/20 09:58:09;;;;;;;10.13;7.10;;;;;;;;;;5097309;28;20367;-84
2022/03/20 10:00:35;;;;;;;9.90;6.90;;;;;;;;;;5081678;28;20016;-85
2022/03/20 10:03:14;;;;;;;11.13;7.18;;;;;;;;;;5098462;28;20040;-90
2022/03/20 10:05:39;;;;;;;9.68;6.97;;;;;;;;;;5099203;28;20020;-88
2022/03/20 10:08:17;;;;;;;11.70;6.72;;;;;;;;;;5096989;28;20027;-86
2022/03/20 10:10:43;;;;;;;11.30;7.13;;;;;;;;;;5096431;28;20076;-87
2022/03/20 10:13:13;;;;;;;12.63;7.43;;;;;;;;;;5081083;28;20020;-87
2022/03/20 10:15:41;;;;;;;12.55;7.40;;;;;;;;;;5098046;28;20031;-87
2022/03/20 10:18:21;;;;;;;11.13;7.55;;;;;;;;;;5097620;28;20451;-88
2022/03/20 10:20:56;;;;;;;12.68;7.43;;;;;;;;;;5104952;28;20035;-83
2022/03/20 10:23:38;;;;;;;12.63;7.57;;;;;;;;;;5114510;28;20035;-81
2022/03/20 10:26:17;;;;;;;10.00;7.38;;;;;;;;;;5098584;28;20538;-80
2022/03/20 10:28:46;;;;;;;10.70;7.38;;;;;;;;;;5115051;28;20036;-81
2022/03/20 10:31:18;;;;;;;13.10;7.43;;;;;;;;;;5096296;28;20061;-80
2022/03/20 10:33:46;;;;;;;9.60;6.70;;;;;;;;;;5114228;28;20028;-81
2022/03/20 10:36:16;;;;;;;11.93;7.05;;;;;;;;;;5096665;28;20023;-81
2022/03/20 10:38:43;;;;;;;10.65;8.10;;;;;;;;;;5113809;28;20027;-79
2022/03/20 10:41:32;;;;;;;10.02;7.07;;;;;;;;;;5097104;28;20039;-80
2022/03/20 10:43:58;;;;;;;11.40;7.25;;;;;;;;;;5096739;28;20043;-79
2022/03/20 10:46:26;;;;;;;12.52;8.02;;;;;;;;;;5079440;28;20057;-81
2022/03/20 10:48:57;;;;;;;12.13;7.35;;;;;;;;;;5113928;28;20580;-80
2022/03/20 10:51:37;;;;;;;9.68;6.50;;;;;;;;;;5099285;28;20026;-79
2022/03/20 10:54:10;;;;;;;10.48;7.13;;;;;;;;;;5094733;28;20054;-79
2022/03/20 10:56:37;;;;;;;11.30;6.88;;;;;;;;;;5093468;28;20032;-79
2022/03/20 10:59:13;;;;;;;13.07;7.53;;;;;;;;;;5094636;28;20115;-79
2022/03/20 11:01:39;;;;;;;15.30;9.00;;;;;;;;;;5092726;28;20069;-79
2022/03/20 11:04:06;;;;;;;16.52;7.88;;;;;;;;;;5094790;28;20027;-80
2022/03/20 11:06:32;;;;;;;10.40;7.50;;;;;;;;;;5076671;28;20023;-81
2022/03/20 11:08:57;;;;;;;10.90;6.78;;;;;;;;;;5092732;28;20032;-81
2022/03/20 11:11:23;;;;;;;10.82;6.97;;;;;;;;;;5092970;28;20055;-80
2022/03/20 11:13:50;;;;;;;11.70;8.02;;;;;;;;;;5092335;28;20136;-81
2022/03/20 11:16:21;;;;;;;11.30;6.97;;;;;;;;;;5075205;28;20032;-80
2022/03/20 11:18:48;;;;;;;9.45;6.68;;;;;;;;;;5075811;28;20039;-80
2022/03/20 11:21:14;;;;;;;10.35;7.10;;;;;;;;;;5075975;28;20036;-80
2022/03/20 11:23:40;;;;;;;14.25;7.05;;;;;;;;;;5059629;28;20119;-81
2022/03/20 11:26:07;;;;;;;12.35;7.22;;;;;;;;;;5091929;28;20051;-79
2022/03/20 11:28:37;;;;;;;11.82;6.90;;;;;;;;;;5077924;28;20024;-80
2022/03/20 11:31:03;;;;;;;11.98;7.45;;;;;;;;;;5092476;28;20016;-80
2022/03/20 11:33:29;;;;;;;10.63;7.75;;;;;;;;;;5095206;28;20032;-80
2022/03/20 11:35:54;;;;;;;9.90;7.13;;;;;;;;;;5098646;28;20032;-79
2022/03/20 11:38:24;;;;;;;10.73;7.32;;;;;;;;;;5097756;28;20535;-80
2022/03/20 11:41:09;;;;;;;10.65;7.47;;;;;;;;;;5097607;28;20488;-79
2022/03/20 11:43:39;;;;;;;10.60;7.20;;;;;;;;;;5095954;28;20031;-80
2022/03/20 11:46:17;;;;;;;9.27;7.50;;;;;;;;;;5095479;28;20078;-79
2022/03/20 11:48:45;;;;;;;13.30;7.65;;;;;;;;;;5096183;28;20028;-80
2022/03/20 11:51:13;;;;;;;11.90;8.27;;;;;;;;;;5095907;28;20368;-80
2022/03/20 11:53:40;;;;;;;12.45;8.02;;;;;;;;;;5111170;28;20165;-79
2022/03/20 11:56:06;;;;;;;13.95;9.38;;;;;;;;;;5118115;28;20148;-79
2022/03/20 11:58:38;;;;;;;14.55;8.98;;;;;;;;;;5100440;28;20032;-79
2022/03/20 12:01:06;;;;;;;13.68;9.18;;;;;;;;;;5099259;28;20020;-79
2022/03/20 12:04:04;;;;;;;14.75;10.07;;;;;;;;;;5119040;28;20035;-80
2022/03/20 12:07:14;;;;;;;19.15;10.70;;;;;;;;;;5100279;28;20034;-79
2022/03/20 12:10:03;;;;;;;20.63;10.63;;;;;;;;;;5099784;28;20027;-79
2022/03/20 12:12:40;;;;;;;16.88;10.45;;;;;;;;;;5116524;28;20015;-80
2022/03/20 12:15:10;;;;;;;19.90;10.35;;;;;;;;;;5110736;28;20024;-79
2022/03/20 12:17:58;;;;;;;18.38;11.20;;;;;;;;;;5104816;28;20080;-80
2022/03/20 12:20:48;;;;;;;15.50;10.73;;;;;;;;;;5120860;28;20417;-81
2022/03/20 12:23:43;;;;;;;18.83;11.32;;;;;;;;;;5117307;28;20062;-79
2022/03/20 12:26:31;;;;;;;;;;;;;;;;;;5099718;28;20462;-80
2022/03/20 12:29:42;;;;;;;17.52;10.02;;;;;;;;;;5117135;28;19907;-80
2022/03/20 12:32:12;;;;;;;18.92;10.15;;;;;;;;;;5105391;28;20024;-80
2022/03/20 12:34:45;;;;;;;17.40;10.38;;;;;;;;;;5100355;28;20107;-80
2022/03/20 12:37:29;;;;;;;18.15;9.43;;;;;;;;;;5098781;28;20080;-80
2022/03/20 12:40:15;;;;;;;18.35;10.20;;;;;;;;;;5097187;28;20047;-81
2022/03/20 12:42:43;;;;;;;15.35;9.90;;;;;;;;;;5066315;28;20032;-80
2022/03/20 12:45:14;;;;;;;16.23;9.85;;;;;;;;;;5079251;28;20386;-80
2022/03/20 12:47:52;;;;;;;16.65;9.15;;;;;;;;;;5079865;28;20035;-79
2022/03/20 12:50:23;;;;;;;15.23;9.55;;;;;;;;;;5097013;28;20030;-81
2022/03/20 12:52:53;;;;;;;19.02;8.85;;;;;;;;;;5096828;28;20073;-79
2022/03/20 12:55:19;;;;;;;13.32;8.93;;;;;;;;;;5115911;28;20034;-79
2022/03/20 12:57:47;;;;;;;15.18;9.25;;;;;;;;;;5080113;28;20024;-80
2022/03/20 13:00:23;;;;;;;15.55;9.20;;;;;;;;;;5117162;28;20039;-80
2022/03/20 13:03:06;;;;;;;15.60;8.82;;;;;;;;;;5098874;28;20023;-79
2022/03/20 13:05:50;;;;;;;17.60;8.18;;;;;;;;;;5116736;28;20424;-80
2022/03/20 13:08:22;;;;;;;17.90;8.25;;;;;;;;;;5097469;28;20031;-81
2022/03/20 13:10:50;;;;;;;13.63;8.50;;;;;;;;;;5084964;28;20047;-81
2022/03/20 13:13:23;;;;;;;15.75;8.85;;;;;;;;;;5082356;28;20024;-81
2022/03/20 13:15:49;;;;;;;15.33;8.17;;;;;;;;;;5083941;28;20081;-80
2022/03/20 13:18:15;;;;;;;14.40;8.32;;;;;;;;;;5080906;28;20028;-79
2022/03/20 13:20:45;;;;;;;19.85;7.72;;;;;;;;;;5082252;28;20028;-81
2022/03/20 13:23:13;;;;;;;17.25;8.93;;;;;;;;;;5080622;28;20384;-80
2022/03/20 13:25:52;;;;;;;13.50;8.68;;;;;;;;;;5082636;28;20522;-80
2022/03/20 13:28:25;;;;;;;12.65;9.10;;;;;;;;;;5098823;28;20023;-79
2022/03/20 13:30:51;;;;;;;16.60;9.93;;;;;;;;;;5099727;28;20031;-79
2022/03/20 13:33:27;;;;;;;18.75;10.15;;;;;;;;;;5117422;28;20036;-80
2022/03/20 13:35:53;;;;;;;16.40;9.90;;;;;;;;;;5097820;28;20020;-80
2022/03/20 13:38:22;;;;;;;15.95;9.00;;;;;;;;;;5081262;28;20092;-80
2022/03/20 13:40:47;;;;;;;17.40;10.63;;;;;;;;;;5082088;28;20028;-78
2022/03/20 13:43:21;;;;;;;11.18;7.07;;;;;;;;;;5099625;28;20139;-81
2022/03/20 13:45:46;;;;;;;16.42;9.25;;;;;;;;;;5097545;28;20107;-79
2022/03/20 13:48:13;;;;;;;9.60;7.18;;;;;;;;;;5066997;28;20190;-81
2022/03/20 13:50:39;;;;;;;12.02;7.28;;;;;;;;;;5099909;28;20030;-80
2022/03/20 13:53:04;;;;;;;11.35;6.82;;;;;;;;;;5096906;28;20083;-79
2022/03/20 13:55:38;;;;;;;11.35;7.13;;;;;;;;;;5116783;28;20053;-83
2022/03/20 13:58:06;;;;;;;12.25;7.97;;;;;;;;;;5082466;28;20031;-80
2022/03/20 14:00:32;;;;;;;11.02;7.40;;;;;;;;;;5082174;28;20130;-80
2022/03/20 14:02:57;;;;;;;12.73;8.10;;;;;;;;;;5117221;28;20409;-80
2022/03/20 14:05:25;;;;;;;10.93;7.28;;;;;;;;;;5098972;28;20477;-81
2022/03/20 14:08:21;;;;;;;10.98;7.00;;;;;;;;;;5118504;28;20032;-81
2022/03/20 14:10:51;;;;;;;9.25;6.72;;;;;;;;;;5065218;28;20047;-81
2022/03/20 14:13:24;;;;;;;9.23;5.90;;;;;;;;;;5082685;28;20434;-81
2022/03/20 14:16:02;;;;;;;11.25;6.88;;;;;;;;;;5099943;28;20102;-80
2022/03/20 14:18:29;;;;;;;9.95;6.38;;;;;;;;;;5116856;28;20032;-79
2022/03/20 14:21:14;;;;;;;12.60;9.07;;;;;;;;;;5097956;28;20151;-80
2022/03/20 14:24:11;;;;;;;11.80;8.10;;;;;;;;;;5098025;28;20031;-80
2022/03/20 14:26:42;;;;;;;12.57;8.75;;;;;;;;;;5116157;28;20042;-80
2022/03/20 14:29:13;;;;;;;12.00;8.52;;;;;;;;;;5097851;28;20398;-81
2022/03/20 14:40:14;;;;;;;10.02;6.75;;;;;;;;;;5116032;28;20482;-79
2022/03/20 14:42:41;;;;;;;10.90;6.75;;;;;;;;;;5096911;28;20032;-80
2022/03/20 14:45:09;;;;;;;9.82;7.55;;;;;;;;;;5079280;28;20034;-82
2022/03/20 14:47:35;;;;;;;9.77;6.97;;;;;;;;;;5080959;28;20038;-81
2022/03/20 14:50:03;;;;;;;13.18;7.85;;;;;;;;;;5098541;28;20022;-80
2022/03/20 14:52:29;;;;;;;12.13;8.43;;;;;;;;;;5097269;28;20044;-80
2022/03/20 14:54:54;;;;;;;12.43;8.18;;;;;;;;;;5097492;28;20054;-80
2022/03/20 14:57:21;;;;;;;11.13;8.05;;;;;;;;;;5097279;28;20409;-80
2022/03/20 14:59:47;;;;;;;12.45;8.57;;;;;;;;;;5096702;28;20030;-84
2022/03/20 15:02:13;;;;;;;11.85;9.10;;;;;;;;;;5099576;28;20107;-82
2022/03/20 15:04:40;;;;;;;10.82;8.38;;;;;;;;;;5080691;28;20059;-81
2022/03/20 15:07:07;;;;;;;14.38;8.88;;;;;;;;;;5116256;28;20027;-81
2022/03/20 15:12:17;;;;;;;15.07;9.98;;;;;;;;;;5107621;28;20038;-82
2022/03/20 15:14:42;;;;;;;14.48;10.48;;;;;;;;;;5121493;28;20056;-82
2022/03/20 15:17:08;;;;;;;13.32;10.43;;;;;;;;;;5105182;28;20373;-80
2022/03/20 15:19:36;;;;;;;13.32;9.80;;;;;;;;;;5087084;28;20020;-81
2022/03/20 15:22:02;;;;;;;14.90;10.27;;;;;;;;;;5086180;28;20023;-81
2022/03/20 15:24:27;;;;;;;14.60;10.07;;;;;;;;;;5102827;28;20106;-80
2022/03/20 15:26:53;;;;;;;14.13;10.60;;;;;;;;;;5102064;28;20043;-79
2022/03/20 15:29:18;;;;;;;15.00;10.25;;;;;;;;;;5121176;28;20030;-80